sensor_id;sensor_type;location;lat;lon;timestamp;P1;durP1;ratioP1;P2;durP2;ratioP2
2618;SDS011;1319;52.346;13.096;2023-04-29T00:06:11;16.15;;;10.40;;
2618;SDS011;1319;52.346;13.096;2023-04-29T00:08:36;14.27;;;10.50;;
2618;SDS011;1319;52.346;13.096;2023-04-29T00:11:02;14.80;;;10.83;;
2618;SDS011;1319;52.346;13.096;2023-04-29T00:13:27;15.07;;;11.17;;
2618;SDS011;1319;52.346;13.096;2023-04-29T00:15:52;12.40;;;10.20;;
2618;SDS011;1319;52.346;13.096;2023-04-29T00:18:17;15.93;;;10.77;;
2618;SDS011;1319;52.346;13.096;2023-04-29T00:20:42;14.33;;;10.67;;
2618;SDS011;1319;52.346;13.096;2023-04-29T00:23:08;15.10;;;11.40;;
2618;SDS011;1319;52.346;13.096;2023-04-29T00:25:33;17.73;;;10.37;;
2618;SDS011;1319;52.346;13.096;2023-04-29T00:27:59;12.90;;;11.00;;
2618;SDS011;1319;52.346;13.096;2023-04-29T00:30:26;16.50;;;11.13;;
2618;SDS011;1319;52.346;13.096;2023-04-29T00:32:51;16.10;;;11.90;;
2618;SDS011;1319;52.346;13.096;2023-04-29T00:35:17;21.90;;;12.13;;
2618;SDS011;1319;52.346;13.096;2023-04-29T00:37:42;20.47;;;11.83;;
2618;SDS011;1319;52.346;13.096;2023-04-29T00:40:07;17.00;;;12.40;;
2618;SDS011;1319;52.346;13.096;2023-04-29T00:42:34;24.73;;;12.60;;
2618;SDS011;1319;52.346;13.096;2023-04-29T00:44:59;19.77;;;13.47;;
2618;SDS011;1319;52.346;13.096;2023-04-29T00:47:24;16.93;;;13.27;;
2618;SDS011;1319;52.346;13.096;2023-04-29T00:49:50;21.10;;;13.70;;
2618;SDS011;1319;52.346;13.096;2023-04-29T01:55:17;25.70;;;15.00;;
2618;SDS011;1319;52.346;13.096;2023-04-29T02:26:44;23.40;;;15.80;;
2618;SDS011;1319;52.346;13.096;2023-04-29T02:29:09;24.00;;;16.60;;
2618;SDS011;1319;52.346;13.096;2023-04-29T02:31:34;25.70;;;16.93;;
2618;SDS011;1319;52.346;13.096;2023-04-29T02:36:25;27.63;;;17.83;;
2618;SDS011;1319;52.346;13.096;2023-04-29T02:38:52;26.10;;;17.30;;
2618;SDS011;1319;52.346;13.096;2023-04-29T02:41:19;26.23;;;18.10;;
2618;SDS011;1319;52.346;13.096;2023-04-29T02:43:45;30.17;;;20.10;;
2618;SDS011;1319;52.346;13.096;2023-04-29T02:46:10;28.95;;;19.35;;
2618;SDS011;1319;52.346;13.096;2023-04-29T02:48:35;26.37;;;19.20;;
2618;SDS011;1319;52.346;13.096;2023-04-29T02:51:00;30.10;;;20.47;;
2618;SDS011;1319;52.346;13.096;2023-04-29T02:53:26;30.37;;;20.20;;
2618;SDS011;1319;52.346;13.096;2023-04-29T02:55:51;33.60;;;20.77;;
2618;SDS011;1319;52.346;13.096;2023-04-29T02:58:16;31.67;;;21.33;;
2618;SDS011;1319;52.346;13.096;2023-04-29T03:00:42;33.53;;;21.40;;
2618;SDS011;1319;52.346;13.096;2023-04-29T03:03:07;32.73;;;21.13;;
2618;SDS011;1319;52.346;13.096;2023-04-29T03:05:33;34.27;;;21.33;;
2618;SDS011;1319;52.346;13.096;2023-04-29T03:07:59;30.23;;;21.40;;
2618;SDS011;1319;52.346;13.096;2023-04-29T03:10:24;28.30;;;21.35;;
2618;SDS011;1319;52.346;13.096;2023-04-29T03:12:49;36.10;;;22.30;;
2618;SDS011;1319;52.346;13.096;2023-04-29T03:15:14;35.97;;;22.67;;
2618;SDS011;1319;52.346;13.096;2023-04-29T03:17:40;38.37;;;22.73;;
2618;SDS011;1319;52.346;13.096;2023-04-29T03:20:05;34.00;;;22.70;;
2618;SDS011;1319;52.346;13.096;2023-04-29T03:22:31;36.60;;;23.60;;
2618;SDS011;1319;52.346;13.096;2023-04-29T03:27:22;37.80;;;23.15;;
2618;SDS011;1319;52.346;13.096;2023-04-29T03:32:13;39.43;;;23.37;;
2618;SDS011;1319;52.346;13.096;2023-04-29T03:34:38;35.95;;;23.75;;
2618;SDS011;1319;52.346;13.096;2023-04-29T03:37:03;36.70;;;23.40;;
2618;SDS011;1319;52.346;13.096;2023-04-29T04:49:44;47.50;;;26.40;;
2618;SDS011;1319;52.346;13.096;2023-04-29T05:06:45;47.45;;;26.40;;
2618;SDS011;1319;52.346;13.096;2023-04-29T05:09:10;46.10;;;26.15;;
2618;SDS011;1319;52.346;13.096;2023-04-29T05:11:36;50.40;;;27.00;;
2618;SDS011;1319;52.346;13.096;2023-04-29T05:14:01;44.15;;;26.55;;
2618;SDS011;1319;52.346;13.096;2023-04-29T05:16:26;45.95;;;25.95;;
2618;SDS011;1319;52.346;13.096;2023-04-29T05:18:52;47.20;;;25.80;;
2618;SDS011;1319;52.346;13.096;2023-04-29T05:21:17;42.40;;;24.20;;
2618;SDS011;1319;52.346;13.096;2023-04-29T05:23:42;41.80;;;23.90;;
2618;SDS011;1319;52.346;13.096;2023-04-29T06:45:59;35.30;;;19.00;;
2618;SDS011;1319;52.346;13.096;2023-04-29T07:39:15;38.60;;;20.30;;
2618;SDS011;1319;52.346;13.096;2023-04-29T12:42:17;22.65;;;14.95;;
2618;SDS011;1319;52.346;13.096;2023-04-29T12:47:11;19.60;;;14.10;;
2618;SDS011;1319;52.346;13.096;2023-04-29T13:09:05;12.57;;;10.17;;
2618;SDS011;1319;52.346;13.096;2023-04-29T13:11:31;17.27;;;10.00;;
2618;SDS011;1319;52.346;13.096;2023-04-29T13:13:56;14.20;;;9.17;;
2618;SDS011;1319;52.346;13.096;2023-04-29T13:16:21;13.50;;;9.17;;
2618;SDS011;1319;52.346;13.096;2023-04-29T13:18:48;12.47;;;7.70;;
2618;SDS011;1319;52.346;13.096;2023-04-29T13:21:13;8.73;;;7.17;;
2618;SDS011;1319;52.346;13.096;2023-04-29T13:23:39;8.37;;;6.97;;
2618;SDS011;1319;52.346;13.096;2023-04-29T13:26:05;9.60;;;6.70;;
2618;SDS011;1319;52.346;13.096;2023-04-29T13:28:32;8.97;;;6.97;;
2618;SDS011;1319;52.346;13.096;2023-04-29T13:30:58;12.53;;;7.03;;
2618;SDS011;1319;52.346;13.096;2023-04-29T13:33:23;8.70;;;7.37;;
2618;SDS011;1319;52.346;13.096;2023-04-29T13:35:48;10.10;;;7.77;;
2618;SDS011;1319;52.346;13.096;2023-04-29T13:38:14;11.20;;;7.90;;
2618;SDS011;1319;52.346;13.096;2023-04-29T13:50:20;10.70;;;8.03;;
2618;SDS011;1319;52.346;13.096;2023-04-29T13:52:46;13.37;;;7.27;;
2618;SDS011;1319;52.346;13.096;2023-04-29T13:55:11;9.00;;;7.03;;
2618;SDS011;1319;52.346;13.096;2023-04-29T13:57:36;9.93;;;7.32;;
2618;SDS011;1319;52.346;13.096;2023-04-29T14:00:01;11.33;;;7.57;;
2618;SDS011;1319;52.346;13.096;2023-04-29T14:02:27;12.43;;;7.40;;
2618;SDS011;1319;52.346;13.096;2023-04-29T14:04:52;11.53;;;7.57;;
2618;SDS011;1319;52.346;13.096;2023-04-29T14:07:17;12.18;;;7.20;;
2618;SDS011;1319;52.346;13.096;2023-04-29T14:09:42;8.63;;;7.23;;
2618;SDS011;1319;52.346;13.096;2023-04-29T14:12:08;8.95;;;7.20;;
2618;SDS011;1319;52.346;13.096;2023-04-29T14:14:33;10.33;;;8.07;;
2618;SDS011;1319;52.346;13.096;2023-04-29T14:16:58;9.53;;;7.43;;
2618;SDS011;1319;52.346;13.096;2023-04-29T14:19:25;13.33;;;7.50;;
2618;SDS011;1319;52.346;13.096;2023-04-29T14:21:50;13.17;;;8.03;;
2618;SDS011;1319;52.346;13.096;2023-04-29T14:24:15;10.83;;;7.23;;
2618;SDS011;1319;52.346;13.096;2023-04-29T14:26:41;11.97;;;7.70;;
2618;SDS011;1319;52.346;13.096;2023-04-29T14:29:07;9.20;;;7.50;;
2618;SDS011;1319;52.346;13.096;2023-04-29T14:31:34;8.43;;;6.90;;
2618;SDS011;1319;52.346;13.096;2023-04-29T14:34:02;10.30;;;6.60;;
2618;SDS011;1319;52.346;13.096;2023-04-29T14:36:27;9.67;;;6.20;;
2618;SDS011;1319;52.346;13.096;2023-04-29T14:38:52;9.47;;;6.40;;
2618;SDS011;1319;52.346;13.096;2023-04-29T14:41:18;10.90;;;6.70;;
2618;SDS011;1319;52.346;13.096;2023-04-29T14:43:43;7.17;;;6.03;;
2618;SDS011;1319;52.346;13.096;2023-04-29T14:46:08;10.43;;;6.43;;
2618;SDS011;1319;52.346;13.096;2023-04-29T14:48:34;6.60;;;5.22;;
2618;SDS011;1319;52.346;13.096;2023-04-29T14:50:59;10.90;;;5.60;;
2618;SDS011;1319;52.346;13.096;2023-04-29T14:53:24;7.57;;;5.38;;
2618;SDS011;1319;52.346;13.096;2023-04-29T14:55:50;7.97;;;5.60;;
2618;SDS011;1319;52.346;13.096;2023-04-29T16:44:46;10.63;;;6.50;;
2618;SDS011;1319;52.346;13.096;2023-04-29T16:47:11;10.90;;;6.73;;
2618;SDS011;1319;52.346;13.096;2023-04-29T19:29:26;8.60;;;5.00;;
2618;SDS011;1319;52.346;13.096;2023-04-29T19:31:51;8.13;;;5.10;;
2618;SDS011;1319;52.346;13.096;2023-04-29T19:34:17;8.47;;;5.30;;
2618;SDS011;1319;52.346;13.096;2023-04-29T19:36:42;9.10;;;5.30;;
2618;SDS011;1319;52.346;13.096;2023-04-29T19:39:07;6.23;;;5.30;;
2618;SDS011;1319;52.346;13.096;2023-04-29T19:41:33;10.90;;;5.70;;
2618;SDS011;1319;52.346;13.096;2023-04-29T19:43:59;6.50;;;5.10;;
2618;SDS011;1319;52.346;13.096;2023-04-29T19:46:24;6.23;;;5.03;;
2618;SDS011;1319;52.346;13.096;2023-04-29T19:48:49;7.03;;;5.30;;
2618;SDS011;1319;52.346;13.096;2023-04-29T19:51:15;11.97;;;5.17;;
2618;SDS011;1319;52.346;13.096;2023-04-29T19:53:40;10.10;;;5.70;;
2618;SDS011;1319;52.346;13.096;2023-04-29T19:56:05;6.83;;;5.10;;
2618;SDS011;1319;52.346;13.096;2023-04-29T19:58:30;12.60;;;5.40;;
2618;SDS011;1319;52.346;13.096;2023-04-29T20:00:56;11.23;;;5.13;;
2618;SDS011;1319;52.346;13.096;2023-04-29T20:03:21;8.93;;;5.53;;
2618;SDS011;1319;52.346;13.096;2023-04-29T20:05:46;10.30;;;4.90;;
2618;SDS011;1319;52.346;13.096;2023-04-29T20:08:12;9.73;;;5.70;;
2618;SDS011;1319;52.346;13.096;2023-04-29T20:10:37;10.30;;;5.30;;
2618;SDS011;1319;52.346;13.096;2023-04-29T20:13:02;9.43;;;5.67;;
2618;SDS011;1319;52.346;13.096;2023-04-29T20:15:28;6.70;;;5.93;;
2618;SDS011;1319;52.346;13.096;2023-04-29T20:17:53;6.80;;;5.47;;
2618;SDS011;1319;52.346;13.096;2023-04-29T20:20:19;9.00;;;5.97;;
2618;SDS011;1319;52.346;13.096;2023-04-29T20:22:44;7.13;;;5.80;;
2618;SDS011;1319;52.346;13.096;2023-04-29T20:25:10;11.50;;;6.40;;
2618;SDS011;1319;52.346;13.096;2023-04-29T20:27:35;8.00;;;6.20;;
2618;SDS011;1319;52.346;13.096;2023-04-29T20:30:00;12.43;;;7.50;;
2618;SDS011;1319;52.346;13.096;2023-04-29T20:32:26;10.63;;;7.00;;
2618;SDS011;1319;52.346;13.096;2023-04-29T20:34:51;17.63;;;10.43;;
2618;SDS011;1319;52.346;13.096;2023-04-29T20:37:16;17.27;;;10.13;;
2618;SDS011;1319;52.346;13.096;2023-04-29T20:39:43;21.20;;;9.73;;
2618;SDS011;1319;52.346;13.096;2023-04-29T20:42:09;13.10;;;8.43;;
2618;SDS011;1319;52.346;13.096;2023-04-29T20:44:34;12.53;;;8.90;;
2618;SDS011;1319;52.346;13.096;2023-04-29T20:47:00;11.07;;;7.70;;
2618;SDS011;1319;52.346;13.096;2023-04-29T20:49:25;10.13;;;7.80;;
2618;SDS011;1319;52.346;13.096;2023-04-29T20:51:51;11.97;;;7.03;;
2618;SDS011;1319;52.346;13.096;2023-04-29T20:54:16;11.97;;;7.77;;
2618;SDS011;1319;52.346;13.096;2023-04-29T20:56:41;9.90;;;6.77;;
2618;SDS011;1319;52.346;13.096;2023-04-29T20:59:06;13.10;;;7.03;;
2618;SDS011;1319;52.346;13.096;2023-04-29T21:01:32;11.37;;;7.60;;
2618;SDS011;1319;52.346;13.096;2023-04-29T21:03:57;27.43;;;16.70;;
2618;SDS011;1319;52.346;13.096;2023-04-29T21:06:24;28.90;;;15.27;;
2618;SDS011;1319;52.346;13.096;2023-04-29T21:08:49;15.43;;;10.70;;
2618;SDS011;1319;52.346;13.096;2023-04-29T21:11:14;21.30;;;12.80;;
2618;SDS011;1319;52.346;13.096;2023-04-29T21:13:39;34.60;;;19.53;;
2618;SDS011;1319;52.346;13.096;2023-04-29T21:16:05;31.20;;;17.10;;
2618;SDS011;1319;52.346;13.096;2023-04-29T21:18:30;24.63;;;12.90;;
2618;SDS011;1319;52.346;13.096;2023-04-29T21:20:55;20.37;;;11.50;;
2618;SDS011;1319;52.346;13.096;2023-04-29T21:23:20;16.47;;;10.83;;
2618;SDS011;1319;52.346;13.096;2023-04-29T21:25:46;14.27;;;9.80;;
2618;SDS011;1319;52.346;13.096;2023-04-29T21:28:12;13.67;;;9.07;;
2618;SDS011;1319;52.346;13.096;2023-04-29T21:30:37;12.30;;;8.40;;
2618;SDS011;1319;52.346;13.096;2023-04-29T21:33:02;11.63;;;8.07;;
2618;SDS011;1319;52.346;13.096;2023-04-29T21:35:27;11.43;;;7.50;;
2618;SDS011;1319;52.346;13.096;2023-04-29T21:37:53;10.43;;;6.97;;
2618;SDS011;1319;52.346;13.096;2023-04-29T21:40:18;10.80;;;7.17;;
2618;SDS011;1319;52.346;13.096;2023-04-29T21:42:43;11.43;;;7.13;;
2618;SDS011;1319;52.346;13.096;2023-04-29T21:45:10;9.53;;;6.90;;
2618;SDS011;1319;52.346;13.096;2023-04-29T21:47:36;11.57;;;7.50;;
2618;SDS011;1319;52.346;13.096;2023-04-29T21:50:01;9.80;;;6.60;;
2618;SDS011;1319;52.346;13.096;2023-04-29T21:52:26;8.47;;;6.67;;
2618;SDS011;1319;52.346;13.096;2023-04-29T21:54:52;10.13;;;6.40;;
2618;SDS011;1319;52.346;13.096;2023-04-29T21:57:17;8.57;;;7.00;;
2618;SDS011;1319;52.346;13.096;2023-04-29T21:59:42;9.87;;;6.23;;
2618;SDS011;1319;52.346;13.096;2023-04-29T22:02:07;7.67;;;5.47;;
2618;SDS011;1319;52.346;13.096;2023-04-29T22:04:46;14.13;;;6.50;;
2618;SDS011;1319;52.346;13.096;2023-04-29T22:07:11;7.93;;;5.70;;
2618;SDS011;1319;52.346;13.096;2023-04-29T22:09:36;12.20;;;6.13;;
2618;SDS011;1319;52.346;13.096;2023-04-29T22:12:02;6.23;;;5.40;;
2618;SDS011;1319;52.346;13.096;2023-04-29T22:14:27;7.73;;;5.93;;
2618;SDS011;1319;52.346;13.096;2023-04-29T22:16:52;8.57;;;5.90;;
2618;SDS011;1319;52.346;13.096;2023-04-29T22:19:17;6.93;;;5.33;;
2618;SDS011;1319;52.346;13.096;2023-04-29T22:21:43;8.60;;;5.60;;
2618;SDS011;1319;52.346;13.096;2023-04-29T22:24:08;9.40;;;5.53;;
2618;SDS011;1319;52.346;13.096;2023-04-29T22:26:33;6.80;;;5.07;;
2618;SDS011;1319;52.346;13.096;2023-04-29T22:28:59;8.37;;;5.03;;
2618;SDS011;1319;52.346;13.096;2023-04-29T22:31:24;8.47;;;5.37;;
2618;SDS011;1319;52.346;13.096;2023-04-29T22:33:50;6.50;;;4.27;;
2618;SDS011;1319;52.346;13.096;2023-04-29T22:36:16;6.87;;;4.77;;
2618;SDS011;1319;52.346;13.096;2023-04-29T22:38:41;9.80;;;4.63;;
2618;SDS011;1319;52.346;13.096;2023-04-29T22:41:06;6.00;;;4.93;;
2618;SDS011;1319;52.346;13.096;2023-04-29T22:43:33;7.53;;;4.87;;
2618;SDS011;1319;52.346;13.096;2023-04-29T22:45:58;6.67;;;5.17;;
2618;SDS011;1319;52.346;13.096;2023-04-29T22:48:24;8.43;;;5.43;;
2618;SDS011;1319;52.346;13.096;2023-04-29T22:50:52;7.70;;;5.20;;
2618;SDS011;1319;52.346;13.096;2023-04-29T22:53:18;8.60;;;5.37;;
2618;SDS011;1319;52.346;13.096;2023-04-29T22:55:50;7.70;;;5.10;;
2618;SDS011;1319;52.346;13.096;2023-04-29T22:58:15;10.17;;;5.80;;
2618;SDS011;1319;52.346;13.096;2023-04-29T23:00:44;9.00;;;5.77;;
2618;SDS011;1319;52.346;13.096;2023-04-29T23:03:09;9.23;;;5.90;;
2618;SDS011;1319;52.346;13.096;2023-04-29T23:05:35;9.13;;;6.00;;
2618;SDS011;1319;52.346;13.096;2023-04-29T23:08:00;9.10;;;6.13;;
2618;SDS011;1319;52.346;13.096;2023-04-29T23:10:26;11.60;;;5.70;;
2618;SDS011;1319;52.346;13.096;2023-04-29T23:12:51;6.97;;;5.67;;
2618;SDS011;1319;52.346;13.096;2023-04-29T23:15:16;9.27;;;5.87;;
2618;SDS011;1319;52.346;13.096;2023-04-29T23:17:41;11.30;;;5.93;;
2618;SDS011;1319;52.346;13.096;2023-04-29T23:20:07;8.37;;;5.77;;
2618;SDS011;1319;52.346;13.096;2023-04-29T23:22:32;10.97;;;5.70;;
2618;SDS011;1319;52.346;13.096;2023-04-29T23:24:57;9.30;;;6.27;;
2618;SDS011;1319;52.346;13.096;2023-04-29T23:27:22;8.47;;;6.20;;
2618;SDS011;1319;52.346;13.096;2023-04-29T23:29:48;11.60;;;6.07;;
2618;SDS011;1319;52.346;13.096;2023-04-29T23:32:13;6.87;;;5.50;;
2618;SDS011;1319;52.346;13.096;2023-04-29T23:34:38;10.03;;;6.10;;
2618;SDS011;1319;52.346;13.096;2023-04-29T23:37:03;10.50;;;5.97;;
2618;SDS011;1319;52.346;13.096;2023-04-29T23:39:29;6.57;;;5.13;;
2618;SDS011;1319;52.346;13.096;2023-04-29T23:41:54;7.10;;;5.07;;
2618;SDS011;1319;52.346;13.096;2023-04-29T23:44:19;9.40;;;5.40;;
2618;SDS011;1319;52.346;13.096;2023-04-29T23:46:45;11.07;;;5.27;;
2618;SDS011;1319;52.346;13.096;2023-04-29T23:49:10;9.67;;;5.67;;
2618;SDS011;1319;52.346;13.096;2023-04-29T23:51:35;8.40;;;4.93;;
2618;SDS011;1319;52.346;13.096;2023-04-29T23:54:00;12.07;;;4.63;;
2618;SDS011;1319;52.346;13.096;2023-04-29T23:56:25;10.57;;;4.87;;
2618;SDS011;1319;52.346;13.096;2023-04-29T23:58:53;7.13;;;4.50;;
